• Join FlightAware (Why Join?)
  • Login
  • US Flag 
02:38AM EDT


 

Airport Tracker/Info


-or-


 

Live Flight TrackerFlight Track Log ✈ N201LH ✈ 31-Jul-2014 ✈ KDAY - KPBX

Flight Track Log - Related Links

Times and Time Zones

All times are in EDT time to prevent confusion due to time zone crossing. See the N201LH flight status page for this flight to view local times or setup timezone preferences in your user account.

Time Position Orientation Groundspeed Altitude Reporting Facility
EDT Latitude Longitude Course Direction KTS MPH feet Rate Location/Type
05:08PM 39.8967 -84.2117 151° Southeast 65 75 1,300  Level Indianapolis Center
05:09PM 39.8856 -84.2178 203° Southwest 72 83 1,800 780 Climbing Indianapolis Center
05:10PM 39.8658 -84.2133 170° South 86 99 2,600 780 Climbing Indianapolis Center
05:11PM 39.8406 -84.2069 169° South 89 102 3,500 720 Climbing Indianapolis Center
05:12PM 39.8183 -84.1892 148° Southeast 94 108 4,200 720 Climbing Indianapolis Center
05:13PM 39.7967 -84.1678 143° Southeast 96 110 5,000 660 Climbing Indianapolis Center
05:14PM 39.6749 -84.0533 151° Southeast  Level Estimated
05:14PM 39.7742 -84.1467 144° Southeast 96 110 5,600  Level Indianapolis Center
05:15PM 39.7464 -84.1192 143° Southeast 99 114 6,500 720 Climbing Indianapolis Center
05:16PM 39.7372 -84.0886 111° Southeast 105 121 7,200 660 Climbing Indianapolis Center
05:17PM 39.7450 -84.0508 75° East 108 124 7,900 540 Climbing Indianapolis Center
05:18PM 39.7328 -84.0256 122° Southeast 103 119 8,400 480 Climbing Indianapolis Center
05:19PM 39.7081 -84.0106 155° Southeast 103 119 8,900 480 Climbing Indianapolis Center
05:20PM 39.6789 -83.9922 154° Southeast 101 116 9,500 480 Climbing Indianapolis Center
05:21PM 39.6547 -83.9750 151° Southeast 101 116 10,000 420 Climbing Indianapolis Center
05:22PM 39.6303 -83.9581 152° Southeast 101 116 10,400 360 Climbing Indianapolis Center
05:23PM 39.6056 -83.9408 152° Southeast 101 116 10,800 240 Climbing Indianapolis Center
05:24PM 39.5800 -83.9233 152° Southeast 101 116 11,000 120 Climbing Indianapolis Center
05:25PM 39.5492 -83.9000 150° Southeast 119 137 11,100  Climbing Indianapolis Center
05:26PM 39.5069 -83.8711 152° Southeast 139 160 11,100  Level Indianapolis Center
05:27PM 39.4697 -83.8450 152° Southeast 147 169 11,100 -60 Level Indianapolis Center
05:28PM 39.4333 -83.8200 152° Southeast 147 169 11,000 -60 Descending Indianapolis Center
05:30PM 39.3958 -83.7936 151° Southeast 148 170 11,000  Level Indianapolis Center
05:31PM 39.3589 -83.7683 152° Southeast 149 171 11,000  Level Indianapolis Center
05:32PM 39.3222 -83.7428 152° Southeast 149 171 11,000  Level Indianapolis Center
05:33PM 39.2786 -83.7136 153° Southeast 149 171 11,000  Level Indianapolis Center
05:34PM 39.2403 -83.6883 153° Southeast 150 173 11,000  Level Indianapolis Center
05:35PM 39.2033 -83.6625 152° Southeast 150 173 11,000 -60 Level Indianapolis Center
05:36PM 39.1675 -83.6367 151° Southeast 150 173 10,900 -60 Descending Indianapolis Center
05:37PM 39.1317 -83.6131 153° Southeast 147 169 10,900  Level Indianapolis Center
05:38PM 39.0881 -83.5842 153° Southeast 147 169 11,000  Climbing Indianapolis Center
05:39PM 39.0511 -83.5589 152° Southeast 147 169 11,000  Level Indianapolis Center
05:40PM 39.0147 -83.5328 151° Southeast 147 169 11,000  Level Indianapolis Center
05:41PM 38.9783 -83.5072 151° Southeast 147 169 11,100  Climbing Indianapolis Center
05:42PM 38.9406 -83.4825 153° Southeast 148 170 11,100 -60 Level Indianapolis Center
05:43PM 38.9039 -83.4578 152° Southeast 149 171 11,000  Descending Indianapolis Center
05:44PM 38.8594 -83.4286 153° Southeast 149 171 11,100  Climbing Indianapolis Center
05:45PM 38.8219 -83.4014 151° Southeast 150 173 11,100 -300 Level Indianapolis Center
05:46PM 38.7822 -83.3758 153° Southeast 156 180 10,500 -600 Descending Indianapolis Center
05:47PM 38.7411 -83.3475 152° Southeast 164 189 9,900 -780 Descending Indianapolis Center
05:48PM 38.7031 -83.3150 146° Southeast 163 188 9,000 -780 Descending Indianapolis Center
05:49PM 38.6603 -83.2939 159° South 164 189 8,400 -600 Descending Indianapolis Center
05:50PM 38.6186 -83.2661 152° Southeast 160 184 7,800 -540 Descending Indianapolis Center
05:51PM 38.5767 -83.2336 149° Southeast 153 176 7,300 -300 Descending Indianapolis Center
05:52PM 38.5369 -83.2111 156° South 153 176 7,200 -180 Descending Indianapolis Center
05:53PM 38.4981 -83.1872 154° Southeast 154 177 7,000 -120 Descending Indianapolis Center
05:54PM 38.4597 -83.1603 151° Southeast 154 177 7,000  Level Indianapolis Center
05:55PM 38.4233 -83.1344 151° Southeast 153 176 7,000  Level Indianapolis Center
05:56PM 38.3794 -83.1053 152° Southeast 153 176 7,100  Climbing Indianapolis Center
05:57PM 38.3419 -83.0797 152° Southeast 153 176 7,000 -60 Descending Indianapolis Center
05:58PM 38.3042 -83.0547 153° Southeast 153 176 7,000  Level Indianapolis Center
06:00PM 38.2658 -83.0289 152° Southeast 153 176 7,000  Level Indianapolis Center
06:01PM 38.2281 -83.0036 152° Southeast 153 176 7,000 -60 Level Indianapolis Center
06:02PM 38.1914 -82.9786 152° Southeast 153 176 6,900  Descending Indianapolis Center
06:03PM 38.1469 -82.9514 154° Southeast 152 175 7,000 -120 Climbing Indianapolis Center
06:04PM 38.1081 -82.9256 152° Southeast 153 176 6,700 -300 Descending Indianapolis Center
06:05PM 38.0681 -82.8986 152° Southeast 159 183 6,400 -300 Descending Indianapolis Center
06:06PM 38.0283 -82.8717 152° Southeast 160 184 6,200 -180 Descending Indianapolis Center
06:07PM 37.9883 -82.8453 153° Southeast 160 184 6,100 -300 Descending Indianapolis Center
06:08PM 37.9422 -82.8153 153° Southeast 160 184 5,700 -480 Descending Indianapolis Center
06:09PM 37.9008 -82.7875 152° Southeast 163 188 5,200 -540 Descending Indianapolis Center
06:10PM 37.8606 -82.7617 153° Southeast 165 190 4,700 -300 Descending Indianapolis Center
06:11PM 37.8219 -82.7358 152° Southeast 162 186 4,600 -60 Descending Indianapolis Center
06:12PM 37.7861 -82.7128 153° Southeast 150 173 4,600 -120 Level Indianapolis Center
06:13PM 37.7506 -82.6900 153° Southeast 146 168 4,400 -180 Descending Indianapolis Center
06:14PM 37.7078 -82.6622 153° Southeast 146 168 4,300 -120 Descending Indianapolis Center
06:16PM 37.6570 -82.6300 153° Southeast  Level FlightAware Approximate
06:23PM 37.5618 -82.5664 142° Southeast  Level Estimated
06:24PM 37.5618 -82.5664 132° Southeast  Level Estimated
06:25PM 37.5618 -82.5664 142° Southeast  Level Estimated
06:26PM 37.5618 -82.5664 132° Southeast  Level Estimated
06:27PM 37.5618 -82.5664 142° Southeast  Level Estimated
06:28PM 37.5618 -82.5664 132° Southeast  Level Estimated
06:29PM 37.5618 -82.5664 142° Southeast  Level Estimated
06:30PM 37.5618 -82.5664 132° Southeast  Level Estimated
06:31PM 37.5618 -82.5664 142° Southeast  Level Estimated
06:32PM 37.5618 -82.5664 132° Southeast  Level Estimated
06:33PM 37.5618 -82.5664 142° Southeast  Level Estimated